5PS4 weather

Hansen Airport
Sassamansville, Pennsylvania, United States

Public forecast

Using degrees Fahrenheit for public forecast. Weather courtesy of forecast.io.

Closest aviation weather report (METAR) to Hansen Airport

Closest report is Heritage Field, 6.3 nm (11.6 km) S. Retrieved 2020/02/24 00:54 UTC (30 minutes ago):

KPTW 240054Z AUTO 19004KT 10SM SCT110 07/M11 A3011 RMK AO2 SLP198 T00671106

Closest aviation forecast (TAF) to Hansen Airport

Closest forecast is Reading Regional Carl A Spaatz Field, 17.8 nm (33.0 km) W. Retrieved 2020-02-24 00:22 UTC (1 hour ago):

TAF KRDG 232320Z 2400/2424 21006KT P6SM FEW090 FM240100 VRB04KT P6SM SCT070 FM241500 23005KT P6SM SCT200 FM242000 VRB04KT P6SM BKN150